Stanton, Nebraska
Current Conditions -  °F | °C
As of 12:56 PM on Tuesday 21 Oct 2014 (Local Time) from KOFK Reporting Station
Clear Clear  
Wind Chill: 74°   Ceiling: Unl
Heat Index: 74°   Visibility: 10mi
Dew Point: 45°   Wind: 14mph
Humidity: 35%   Direction: 170°S
Pressure: 30.04"   Gusts: NA
Location:  41.95°N, 97.22°W
Report Text: KOFK 211756Z AUTO 17012KT 10SM CLR 23/07 A3004 RMK AO2 SLP170 T02330072 10233 20033 58013
Loading
Personal Weather Stations






























Interactive Weather Map
Tropical Storm Tracking
New forecast layout! Learn more

10-Day Weather Forecast

Advertisements
Track Severe Weather on mobile